Decoded Metar for KIPJ (LINCOLNTON in NC, USA) (IATA:IPJ) | Meteo·Mobile Aviation Weather
aviador You're here:

KIPJ Decoded Metar

LINCOLNTON in NC, USA
Report Time2018-10-20 12:30:00
UTC Time2018-10-20 12:46:23
Flight Rules vfr VFR
WindCalm
Visibility9999 m
Phenomena:N/A
Clouds:Scattered 090 Hf
Scattered 120 Hf
Expected CloudBase > 400 ft AGL from Temp-Dew spread
CeilingNone
Temp15°C (ISA +2)
Dew Point14°C (94% RH)
QNH1014 hPa
Density Alt1,266 ft
Elevation876 ft
Report Wrong Elevation
Raw Report
METAR KIPJ 201230Z AUTO 00000KT 10SM SCT090 SCT120 15/14 A2994 RMK
AO2 T01500135=

Extra information for KIPJ:More info

Metar Taf Metar & Taf Last 4 Metars F.Rules Stats Wind Profile Meteogram Temp Stats Airport Information Weather charts Add Link Nearby VenuesMetar ALERT Operation Metar Decoded Social comments

AIRNAV info for KIPJ